createdAt,value
2023-07-24T00:02:06.635Z,26.16
2023-07-24T00:04:34.355Z,26.21
2023-07-24T00:07:01.929Z,26.34
2023-07-24T00:09:30.131Z,26.18
2023-07-24T00:11:57.795Z,26.21
2023-07-24T00:14:25.228Z,26.09
2023-07-24T00:16:52.781Z,26.12
2023-07-24T00:19:20.437Z,26.39
2023-07-24T00:21:47.788Z,26.31
2023-07-24T00:24:15.206Z,26.20
2023-07-24T00:26:42.860Z,26.18
2023-07-24T00:29:10.279Z,26.29
2023-07-24T00:31:37.686Z,26.37
2023-07-24T00:34:05.382Z,26.00
2023-07-24T00:36:34.060Z,26.24
2023-07-24T00:39:01.438Z,26.26
2023-07-24T00:41:31.929Z,26.16
2023-07-24T00:43:59.342Z,25.86
2023-07-24T00:46:26.845Z,26.07
2023-07-24T00:48:55.184Z,26.10
2023-07-24T00:51:22.613Z,26.06
2023-07-24T00:53:50.064Z,26.27
2023-07-24T00:56:17.712Z,26.14
2023-07-24T00:58:45.197Z,26.12
2023-07-24T01:01:12.703Z,26.09
2023-07-24T01:03:40.385Z,26.21
2023-07-24T01:06:07.817Z,26.29
2023-07-24T01:08:35.227Z,26.25
2023-07-24T01:11:24.407Z,26.13
2023-07-24T01:14:10.584Z,25.96
2023-07-24T01:16:38.728Z,26.09
2023-07-24T01:19:13.624Z,25.97
2023-07-24T01:21:49.904Z,25.85
2023-07-24T01:24:29.822Z,26.14
2023-07-24T01:26:57.493Z,25.93
2023-07-24T01:29:24.908Z,26.12
2023-07-24T01:31:52.346Z,25.87
2023-07-24T01:34:20.098Z,25.72
2023-07-24T01:36:47.640Z,25.82
2023-07-24T01:39:15.030Z,25.65
2023-07-24T01:41:42.808Z,25.46
2023-07-24T01:44:10.201Z,25.51
2023-07-24T01:46:37.672Z,25.69
2023-07-24T01:49:05.316Z,25.77
2023-07-24T01:51:32.740Z,25.05
2023-07-24T01:54:00.139Z,25.34
2023-07-24T01:56:28.197Z,24.95
2023-07-24T01:58:55.834Z,25.03
2023-07-24T02:01:23.250Z,25.19
2023-07-24T02:03:51.187Z,25.40
2023-07-24T02:06:18.557Z,25.11
2023-07-24T02:08:49.926Z,25.14
2023-07-24T02:11:17.904Z,25.20
2023-07-24T02:13:45.656Z,24.62
2023-07-24T02:16:13.832Z,24.54
2023-07-24T02:18:42.966Z,24.72
2023-07-24T02:21:10.492Z,24.55
2023-07-24T02:23:38.134Z,24.69
2023-07-24T02:26:06.389Z,24.85
2023-07-24T02:28:35.391Z,25.21
2023-07-24T02:31:03.068Z,25.16
2023-07-24T02:33:30.458Z,24.75
2023-07-24T02:35:57.849Z,24.44
2023-07-24T02:38:25.535Z,24.63
2023-07-24T02:40:52.996Z,24.87
2023-07-24T02:43:20.451Z,24.98
2023-07-24T02:45:48.103Z,24.61
2023-07-24T02:48:15.554Z,25.03
2023-07-24T02:50:43.051Z,24.99
2023-07-24T02:53:10.795Z,25.12
2023-07-24T02:55:38.230Z,25.15
2023-07-24T02:58:05.684Z,25.29
2023-07-24T03:00:33.358Z,24.69
2023-07-24T03:03:00.820Z,25.06
2023-07-24T03:05:28.404Z,24.88
2023-07-24T03:07:56.049Z,24.76
2023-07-24T03:10:24.343Z,24.89
2023-07-24T03:12:51.700Z,24.48
2023-07-24T03:15:19.925Z,24.59
2023-07-24T03:17:47.369Z,24.73
2023-07-24T03:20:14.859Z,24.33
2023-07-24T03:22:43.029Z,24.48
2023-07-24T03:25:10.447Z,24.21
2023-07-24T03:27:37.886Z,24.19
2023-07-24T03:30:06.185Z,24.13
2023-07-24T03:32:33.614Z,24.21
2023-07-24T03:35:01.045Z,24.29
2023-07-24T03:37:28.816Z,24.28
2023-07-24T03:39:56.211Z,24.13
2023-07-24T03:42:32.922Z,24.10
2023-07-24T03:45:00.669Z,24.22
2023-07-24T03:47:28.105Z,23.97
2023-07-24T03:49:56.220Z,24.16
2023-07-24T03:52:23.909Z,24.03
2023-07-24T03:54:52.548Z,23.72
2023-07-24T03:57:20.084Z,23.59
2023-07-24T03:59:47.744Z,23.90
2023-07-24T04:02:15.240Z,24.01
2023-07-24T04:04:42.927Z,24.19
2023-07-24T04:07:10.283Z,24.34
2023-07-24T04:09:37.668Z,24.24
2023-07-24T04:12:06.060Z,24.50
2023-07-24T04:14:33.449Z,24.28
2023-07-24T04:17:01.109Z,24.37
2023-07-24T04:19:28.765Z,24.51
2023-07-24T04:21:56.196Z,24.73
2023-07-24T04:24:23.625Z,24.69
2023-07-24T04:26:51.269Z,24.67
2023-07-24T04:29:18.678Z,25.19
2023-07-24T04:31:46.045Z,25.34
2023-07-24T04:34:13.712Z,25.14
2023-07-24T04:36:41.094Z,25.31
2023-07-24T04:39:08.496Z,25.61
2023-07-24T04:41:36.178Z,26.03
2023-07-24T04:44:03.669Z,25.89
2023-07-24T04:46:31.452Z,25.93
2023-07-24T04:48:59.333Z,25.89
2023-07-24T04:51:26.707Z,26.11
2023-07-24T04:53:54.769Z,26.02
2023-07-24T04:56:22.459Z,26.49
2023-07-24T04:58:49.867Z,27.20
2023-07-24T05:01:17.341Z,27.59
2023-07-24T05:03:45.107Z,28.43
2023-07-24T05:06:12.470Z,29.88
2023-07-24T05:08:39.911Z,31.07
2023-07-24T05:11:07.579Z,31.93
2023-07-24T05:13:34.964Z,32.75
2023-07-24T05:16:02.337Z,33.29
2023-07-24T05:18:30.697Z,33.98
2023-07-24T05:20:58.111Z,34.48
2023-07-24T05:23:25.583Z,35.32
2023-07-24T05:26:02.738Z,34.49
2023-07-24T05:28:31.180Z,35.51
2023-07-24T05:31:03.934Z,36.42
2023-07-24T05:33:31.927Z,37.19
2023-07-24T05:36:00.544Z,38.15
2023-07-24T05:38:27.989Z,38.48
2023-07-24T05:40:59.099Z,38.71
2023-07-24T05:43:27.264Z,39.36
2023-07-24T05:45:55.182Z,39.65
2023-07-24T05:48:22.733Z,40.02
2023-07-24T05:50:50.453Z,40.05
2023-07-24T05:53:17.942Z,39.52
2023-07-24T05:55:45.581Z,40.07
2023-07-24T05:58:13.505Z,40.64
2023-07-24T06:00:40.866Z,41.21
2023-07-24T06:03:09.069Z,40.74
2023-07-24T06:05:36.571Z,41.11
2023-07-24T06:08:04.028Z,40.66
2023-07-24T06:10:31.680Z,40.86
2023-07-24T06:12:59.092Z,40.86
2023-07-24T06:15:28.520Z,41.08
2023-07-24T06:17:56.239Z,41.15
2023-07-24T06:20:23.691Z,41.65
2023-07-24T06:22:51.096Z,41.59
2023-07-24T06:25:18.759Z,40.93
2023-07-24T06:27:46.193Z,40.72
2023-07-24T06:30:16.219Z,41.29
2023-07-24T06:32:44.677Z,41.03
2023-07-24T06:35:12.169Z,41.70
2023-07-24T06:37:39.860Z,41.87
2023-07-24T06:40:08.582Z,41.87
2023-07-24T06:42:36.153Z,42.23
2023-07-24T06:45:05.449Z,42.80
2023-07-24T06:47:35.122Z,42.86
2023-07-24T06:50:03.766Z,43.68
2023-07-24T06:52:31.372Z,44.02
2023-07-24T06:54:59.437Z,43.81
2023-07-24T06:57:26.901Z,45.10
2023-07-24T06:59:55.507Z,44.72
2023-07-24T07:02:23.442Z,45.03
2023-07-24T07:04:50.880Z,44.62
2023-07-24T07:07:18.247Z,44.86
2023-07-24T07:09:45.915Z,44.52
2023-07-24T07:12:13.319Z,44.79
2023-07-24T07:14:40.662Z,44.91
2023-07-24T07:17:08.340Z,44.22
2023-07-24T07:19:37.188Z,44.82
2023-07-24T07:22:04.865Z,44.81
2023-07-24T07:24:32.525Z,46.10
2023-07-24T07:26:59.945Z,46.31
2023-07-24T07:29:27.322Z,46.20
2023-07-24T07:31:54.974Z,46.19
2023-07-24T07:34:22.376Z,45.79
2023-07-24T07:36:49.792Z,45.85
2023-07-24T07:39:17.418Z,46.64
2023-07-24T07:41:44.768Z,46.14
2023-07-24T07:44:12.223Z,46.62
2023-07-24T07:46:39.910Z,47.16
2023-07-24T07:49:07.366Z,47.05
2023-07-24T07:51:34.788Z,47.60
2023-07-24T07:54:02.472Z,46.28
2023-07-24T07:56:30.061Z,46.34
2023-07-24T07:58:57.685Z,46.42
2023-07-24T08:01:25.322Z,47.39
2023-07-24T08:03:53.093Z,47.74
2023-07-24T08:06:22.375Z,46.98
2023-07-24T08:08:49.781Z,46.65
2023-07-24T08:11:17.454Z,45.94
2023-07-24T08:13:44.832Z,46.07
2023-07-24T08:16:19.732Z,46.66
2023-07-24T08:18:48.830Z,47.67
2023-07-24T08:21:16.403Z,46.46
2023-07-24T08:23:43.830Z,46.83
2023-07-24T08:26:11.489Z,46.90
2023-07-24T08:28:43.120Z,46.28
2023-07-24T08:31:10.997Z,46.14
2023-07-24T08:33:38.590Z,45.74
2023-07-24T08:36:07.410Z,45.58
2023-07-24T08:38:35.726Z,45.24
2023-07-24T08:41:13.448Z,45.47
2023-07-24T08:43:42.892Z,46.77
2023-07-24T08:46:10.506Z,46.49
2023-07-24T08:48:41.433Z,46.28
2023-07-24T08:51:12.847Z,46.49
2023-07-24T08:53:41.650Z,47.80
2023-07-24T08:56:10.527Z,48.32
2023-07-24T08:58:38.035Z,49.00
2023-07-24T09:01:05.782Z,48.26
2023-07-24T09:03:33.926Z,47.40
2023-07-24T09:06:19.741Z,46.88
2023-07-24T09:08:47.390Z,47.46
2023-07-24T09:11:15.084Z,48.36
2023-07-24T09:13:44.044Z,48.63
2023-07-24T09:16:32.383Z,48.73
2023-07-24T09:19:11.034Z,48.55
2023-07-24T09:21:39.280Z,49.69
2023-07-24T09:24:14.340Z,49.09
2023-07-24T09:26:51.969Z,50.44
2023-07-24T09:29:19.566Z,50.59
2023-07-24T09:31:47.211Z,49.84
2023-07-24T09:34:17.931Z,49.83
2023-07-24T09:36:45.632Z,49.62
2023-07-24T09:39:13.347Z,49.76
2023-07-24T09:41:41.797Z,50.26
2023-07-24T09:44:09.384Z,49.88
2023-07-24T09:46:45.761Z,49.44
2023-07-24T09:49:15.517Z,49.36
2023-07-24T09:51:43.914Z,48.95
2023-07-24T09:54:15.183Z,49.75
2023-07-24T09:56:50.571Z,49.62
2023-07-24T09:59:23.105Z,48.80
2023-07-24T10:01:50.834Z,49.23
2023-07-24T10:04:18.619Z,49.05
2023-07-24T10:06:46.200Z,49.99
2023-07-24T10:09:13.587Z,50.34
2023-07-24T10:11:41.254Z,50.65
2023-07-24T10:14:08.739Z,50.82
2023-07-24T10:16:36.157Z,50.86
2023-07-24T10:19:17.123Z,51.09
2023-07-24T10:21:48.449Z,51.13
2023-07-24T10:24:35.331Z,50.84
2023-07-24T10:27:07.288Z,50.72
2023-07-24T10:29:37.005Z,50.83
2023-07-24T10:32:05.032Z,49.70
2023-07-24T10:34:39.828Z,50.41
2023-07-24T10:37:11.035Z,50.57
2023-07-24T10:39:41.960Z,49.24
2023-07-24T10:42:10.592Z,49.52
2023-07-24T10:44:38.340Z,48.76
2023-07-24T10:47:05.796Z,48.16
2023-07-24T10:49:33.446Z,47.96
2023-07-24T10:52:00.824Z,48.01
2023-07-24T10:54:28.244Z,47.64
2023-07-24T10:57:02.261Z,47.57
2023-07-24T10:59:39.711Z,45.96
2023-07-24T11:02:08.280Z,44.92
2023-07-24T11:04:36.275Z,43.84
2023-07-24T11:07:03.885Z,42.26
2023-07-24T11:09:38.493Z,41.29
2023-07-24T11:12:15.848Z,40.90
2023-07-24T11:14:57.044Z,40.81
2023-07-24T11:17:41.595Z,40.32
2023-07-24T11:20:16.606Z,39.93
2023-07-24T11:22:44.856Z,40.01
2023-07-24T11:25:12.875Z,38.83
2023-07-24T11:27:46.133Z,39.14
2023-07-24T11:30:14.328Z,39.29
2023-07-24T11:32:42.367Z,38.81
2023-07-24T11:35:10.073Z,38.76
2023-07-24T11:37:38.068Z,37.99
2023-07-24T11:40:12.309Z,38.11
2023-07-24T11:42:41.188Z,38.25
2023-07-24T11:45:10.978Z,37.69
2023-07-24T11:47:50.933Z,38.00
2023-07-24T11:50:19.052Z,37.84
2023-07-24T11:52:48.011Z,37.64
2023-07-24T11:55:20.586Z,37.44
2023-07-24T11:57:58.475Z,36.93
2023-07-24T12:00:26.295Z,37.01
2023-07-24T12:02:54.253Z,36.94
2023-07-24T12:05:23.111Z,36.99
2023-07-24T12:07:50.759Z,36.79
2023-07-24T12:10:27.981Z,36.65
2023-07-24T12:13:01.022Z,36.35
2023-07-24T12:15:28.953Z,36.24
2023-07-24T12:17:58.114Z,36.39
2023-07-24T12:20:25.900Z,36.69
2023-07-24T12:22:55.011Z,36.76
2023-07-24T12:25:22.860Z,36.56
2023-07-24T12:27:50.508Z,36.50
2023-07-24T12:30:18.498Z,36.56
2023-07-24T12:32:46.314Z,36.81
2023-07-24T12:35:16.858Z,36.59
2023-07-24T12:37:46.989Z,36.57
2023-07-24T12:40:14.922Z,36.80
2023-07-24T12:42:42.568Z,36.49
2023-07-24T12:45:10.643Z,36.78
2023-07-24T12:47:38.360Z,36.71
2023-07-24T12:50:08.260Z,36.59
2023-07-24T12:52:36.530Z,36.80
2023-07-24T12:55:04.415Z,36.74
2023-07-24T12:57:33.164Z,36.60
2023-07-24T13:00:01.104Z,36.80
2023-07-24T13:02:29.532Z,36.80
2023-07-24T13:04:57.196Z,36.44
2023-07-24T13:07:25.119Z,36.22
2023-07-24T13:09:53.298Z,36.55
2023-07-24T13:12:20.998Z,36.62
2023-07-24T13:14:48.976Z,36.37
2023-07-24T13:17:16.632Z,36.68
2023-07-24T13:19:44.267Z,36.64
2023-07-24T13:22:13.200Z,36.47
2023-07-24T13:24:40.929Z,36.18
2023-07-24T13:27:08.638Z,36.24
2023-07-24T13:29:36.589Z,36.44
2023-07-24T13:32:04.482Z,36.47
2023-07-24T13:34:32.306Z,36.08
2023-07-24T13:37:00.233Z,36.38
2023-07-24T13:39:29.640Z,36.05
2023-07-24T13:41:57.536Z,36.24
2023-07-24T13:44:25.548Z,36.31
2023-07-24T13:46:53.278Z,36.24
2023-07-24T13:49:20.969Z,36.05
2023-07-24T13:51:48.901Z,35.66
2023-07-24T13:54:16.571Z,35.87
2023-07-24T13:56:44.292Z,36.02
2023-07-24T13:59:12.254Z,36.08
2023-07-24T14:01:39.949Z,36.11
2023-07-24T14:04:07.882Z,35.73
2023-07-24T14:06:35.769Z,35.56
2023-07-24T14:09:04.408Z,35.75
2023-07-24T14:11:32.382Z,36.03
2023-07-24T14:14:00.135Z,35.82
2023-07-24T14:16:27.579Z,36.20
2023-07-24T14:18:55.284Z,36.37
2023-07-24T14:21:22.725Z,36.30
2023-07-24T14:23:50.154Z,36.32
2023-07-24T14:26:17.890Z,36.19
2023-07-24T14:28:45.369Z,36.17
2023-07-24T14:31:12.823Z,36.14
2023-07-24T14:33:40.527Z,36.14
2023-07-24T14:36:08.020Z,36.36
2023-07-24T14:38:35.467Z,36.26
2023-07-24T14:41:03.157Z,36.21
2023-07-24T14:43:30.577Z,35.99
2023-07-24T14:45:58.059Z,35.77
2023-07-24T14:48:25.896Z,35.69
2023-07-24T14:50:53.348Z,35.62
2023-07-24T14:53:20.750Z,35.72
2023-07-24T14:55:48.455Z,35.56
2023-07-24T14:58:15.859Z,35.86
2023-07-24T15:00:45.850Z,36.06
2023-07-24T15:03:14.956Z,36.35
2023-07-24T15:05:42.524Z,36.21
2023-07-24T15:08:10.075Z,36.00
2023-07-24T15:10:37.824Z,36.21
2023-07-24T15:13:05.285Z,36.26
2023-07-24T15:15:32.693Z,36.14
2023-07-24T15:18:00.486Z,35.92
2023-07-24T15:20:28.026Z,35.86
2023-07-24T15:22:55.581Z,35.54
2023-07-24T15:25:23.266Z,35.72
2023-07-24T15:27:50.672Z,35.85
2023-07-24T15:30:18.089Z,36.03
2023-07-24T15:32:47.385Z,36.06
2023-07-24T15:35:14.961Z,36.04
2023-07-24T15:37:42.560Z,35.55
2023-07-24T15:40:12.288Z,35.42
2023-07-24T15:42:41.159Z,34.97
2023-07-24T15:45:09.226Z,34.96
2023-07-24T15:47:36.943Z,35.12
2023-07-24T15:50:05.772Z,34.80
2023-07-24T15:52:33.297Z,34.79
2023-07-24T15:55:01.152Z,34.72
2023-07-24T15:57:28.630Z,34.58
2023-07-24T15:59:56.078Z,34.62
2023-07-24T16:02:23.827Z,35.00
2023-07-24T16:04:52.437Z,34.62
2023-07-24T16:07:19.948Z,34.99
2023-07-24T16:09:47.407Z,34.73
2023-07-24T16:12:15.082Z,34.88
2023-07-24T16:14:42.758Z,34.89
2023-07-24T16:17:10.288Z,34.55
2023-07-24T16:19:39.992Z,34.57
2023-07-24T16:22:07.435Z,34.67
2023-07-24T16:24:35.230Z,34.66
2023-07-24T16:27:04.892Z,34.39
2023-07-24T16:29:33.476Z,34.31
2023-07-24T16:32:01.004Z,34.25
2023-07-24T16:34:29.287Z,34.55
2023-07-24T16:36:57.078Z,34.21
2023-07-24T16:39:25.840Z,33.80
2023-07-24T16:41:53.598Z,33.67
2023-07-24T16:46:48.345Z,33.69
2023-07-24T16:49:16.060Z,33.71
2023-07-24T16:51:43.421Z,33.93
2023-07-24T16:54:11.373Z,33.85
2023-07-24T16:56:39.004Z,34.10
2023-07-24T16:59:06.394Z,33.90
2023-07-24T17:01:34.732Z,33.71
2023-07-24T17:04:02.940Z,33.68
2023-07-24T17:06:30.384Z,33.02
2023-07-24T17:08:57.837Z,33.57
2023-07-24T17:11:25.464Z,33.57
2023-07-24T17:13:52.923Z,33.39
2023-07-24T17:16:20.303Z,33.22
2023-07-24T17:18:55.059Z,33.14
2023-07-24T17:21:23.156Z,33.23
2023-07-24T17:23:50.922Z,33.21
2023-07-24T17:26:18.377Z,33.27
2023-07-24T17:28:47.258Z,33.45
2023-07-24T17:31:15.078Z,32.78
2023-07-24T17:33:42.501Z,33.21
2023-07-24T17:36:09.949Z,33.15
2023-07-24T17:38:37.590Z,33.10
2023-07-24T17:41:05.338Z,33.19
2023-07-24T17:43:32.753Z,33.09
2023-07-24T17:46:00.461Z,33.22
2023-07-24T17:48:27.911Z,32.91
2023-07-24T17:50:55.330Z,32.72
2023-07-24T17:53:23.057Z,32.83
2023-07-24T17:55:51.632Z,32.51
2023-07-24T17:58:19.257Z,32.60
2023-07-24T18:00:47.127Z,32.46
2023-07-24T18:03:15.108Z,32.52
2023-07-24T18:05:42.645Z,32.55
2023-07-24T18:08:10.096Z,32.70
2023-07-24T18:10:37.779Z,32.60
2023-07-24T18:13:05.172Z,32.57
2023-07-24T18:15:32.548Z,32.62
2023-07-24T18:18:00.636Z,32.48
2023-07-24T18:20:28.007Z,32.13
2023-07-24T18:22:55.354Z,32.48
2023-07-24T18:25:23.002Z,32.14
2023-07-24T18:27:50.455Z,32.24
2023-07-24T18:30:17.858Z,32.26
2023-07-24T18:32:45.605Z,32.32
2023-07-24T18:35:14.076Z,32.20
2023-07-24T18:37:41.507Z,32.27
2023-07-24T18:40:09.623Z,32.31
2023-07-24T18:42:37.140Z,32.32
2023-07-24T18:45:05.214Z,32.23
2023-07-24T18:47:35.235Z,32.16
2023-07-24T18:50:02.809Z,32.11
2023-07-24T18:52:31.232Z,32.10
2023-07-24T18:55:00.432Z,31.98
2023-07-24T18:57:27.852Z,31.95
2023-07-24T18:59:55.217Z,32.07
2023-07-24T19:02:22.898Z,31.97
2023-07-24T19:04:50.283Z,31.73
2023-07-24T19:07:17.749Z,31.66
2023-07-24T19:09:45.430Z,31.39
2023-07-24T19:12:12.792Z,31.57
2023-07-24T19:14:41.450Z,31.39
2023-07-24T19:17:09.259Z,31.29
2023-07-24T19:19:36.778Z,31.50
2023-07-24T19:22:04.704Z,31.43
2023-07-24T19:24:32.846Z,31.15
2023-07-24T19:27:00.811Z,31.06
2023-07-24T19:29:28.227Z,31.04
2023-07-24T19:31:55.913Z,30.81
2023-07-24T19:34:23.346Z,30.93
2023-07-24T19:36:52.392Z,30.92
2023-07-24T19:39:20.052Z,30.70
2023-07-24T19:41:47.458Z,30.67
2023-07-24T19:44:14.935Z,30.61
2023-07-24T19:46:42.632Z,30.65
2023-07-24T19:49:10.045Z,30.27
2023-07-24T19:51:37.474Z,29.97
2023-07-24T19:54:05.151Z,30.12
2023-07-24T19:56:32.541Z,30.50
2023-07-24T19:58:59.954Z,30.70
2023-07-24T20:01:28.449Z,30.31
2023-07-24T20:03:56.344Z,30.57
2023-07-24T20:06:23.776Z,30.59
2023-07-24T20:08:51.163Z,30.52
2023-07-24T20:11:18.839Z,30.27
2023-07-24T20:13:46.180Z,30.03
2023-07-24T20:16:13.641Z,30.23
2023-07-24T20:18:41.317Z,30.29
2023-07-24T20:21:08.727Z,30.42
2023-07-24T20:23:36.106Z,29.78
2023-07-24T20:26:03.884Z,29.92
2023-07-24T20:28:31.242Z,30.10
2023-07-24T20:30:59.192Z,30.18
2023-07-24T20:33:27.725Z,30.29
2023-07-24T20:35:55.102Z,29.67
2023-07-24T20:38:27.143Z,30.10
2023-07-24T20:40:54.900Z,30.11
2023-07-24T20:43:22.314Z,29.93
2023-07-24T20:45:51.819Z,29.89
2023-07-24T20:48:19.764Z,29.74
2023-07-24T20:50:47.210Z,29.81
2023-07-24T20:53:14.707Z,29.93
2023-07-24T20:55:42.414Z,29.59
2023-07-24T20:58:10.713Z,29.81
2023-07-24T21:00:38.069Z,29.75
2023-07-24T21:03:05.883Z,29.66
2023-07-24T21:05:36.302Z,29.76
2023-07-24T21:08:05.245Z,29.57
2023-07-24T21:10:32.937Z,29.63
2023-07-24T21:13:00.334Z,29.33
2023-07-24T21:15:27.725Z,29.46
2023-07-24T21:17:55.449Z,29.54
2023-07-24T21:20:22.898Z,29.68
2023-07-24T21:22:50.333Z,29.34
2023-07-24T21:25:19.400Z,29.34
2023-07-24T21:27:46.812Z,29.35
2023-07-24T21:30:14.319Z,29.24
2023-07-24T21:32:42.018Z,29.35
2023-07-24T21:35:10.861Z,29.31
2023-07-24T21:37:39.913Z,29.22
2023-07-24T21:40:08.475Z,29.18
2023-07-24T21:42:35.877Z,29.34
2023-07-24T21:45:04.074Z,29.13
2023-07-24T21:47:31.937Z,28.97
2023-07-24T21:49:59.397Z,29.01
2023-07-24T21:52:26.894Z,28.99
2023-07-24T21:54:54.528Z,28.98
2023-07-24T21:57:22.716Z,28.80
2023-07-24T21:59:50.286Z,28.74
2023-07-24T22:02:17.964Z,28.72
2023-07-24T22:04:45.855Z,28.75
2023-07-24T22:07:13.229Z,28.63
2023-07-24T22:09:40.587Z,28.94
2023-07-24T22:12:08.328Z,28.76
2023-07-24T22:14:35.767Z,28.63
2023-07-24T22:17:03.258Z,28.57
2023-07-24T22:19:30.996Z,28.68
2023-07-24T22:21:58.484Z,28.81
2023-07-24T22:24:25.891Z,28.62
2023-07-24T22:26:53.566Z,28.62
2023-07-24T22:29:21.058Z,28.51
2023-07-24T22:31:48.463Z,28.21
2023-07-24T22:34:16.134Z,28.48
2023-07-24T22:36:44.711Z,28.34
2023-07-24T22:39:12.135Z,28.49
2023-07-24T22:41:39.816Z,28.25
2023-07-24T22:44:07.477Z,28.20
2023-07-24T22:46:35.020Z,28.05
2023-07-24T22:49:02.863Z,28.47
2023-07-24T22:51:30.532Z,28.05
2023-07-24T22:53:58.135Z,28.09
2023-07-24T22:56:25.811Z,28.11
2023-07-24T22:59:05.362Z,28.22
2023-07-24T23:01:33.740Z,28.42
2023-07-24T23:04:01.783Z,28.38
2023-07-24T23:06:29.279Z,28.29
2023-07-24T23:08:56.925Z,28.30
2023-07-24T23:11:24.299Z,27.83
2023-07-24T23:13:51.716Z,28.02
2023-07-24T23:16:19.416Z,28.22
2023-07-24T23:18:46.880Z,28.17
2023-07-24T23:21:14.275Z,28.10
2023-07-24T23:23:41.951Z,28.19
2023-07-24T23:26:09.400Z,28.20
2023-07-24T23:28:36.811Z,28.31
2023-07-24T23:31:07.029Z,27.96
2023-07-24T23:33:34.778Z,27.75
2023-07-24T23:36:02.746Z,27.99
2023-07-24T23:38:30.717Z,28.20
2023-07-24T23:41:01.694Z,27.81
2023-07-24T23:43:29.127Z,27.77
2023-07-24T23:45:56.858Z,27.69
2023-07-24T23:48:24.500Z,27.86
2023-07-24T23:50:52.368Z,27.18
2023-07-24T23:53:20.701Z,27.21
2023-07-24T23:55:48.169Z,27.41
2023-07-24T23:58:15.536Z,27.39
